Hawaiian Chieftain — WDC8751 — position and weather

sailwx.info

Track history (hours):
 
Tides and Currents Weather Stations Pressure Air Temp Water Temp Dewpoint Dewpoint Depression Visibility Wind Speed Wind Dir Waves Ship Positions

Hawaiian Chieftain (United States)

Operated briefly as "Spirt of Larinda". When she sailed from Sausalito, California, callsign was WAA7737.

Ship's website: http://www.historicalseaport.org/HawaiianChieftain.htm

Owner: GRAYS HARBOR HISTORICAL SEAPORT AUTHORITY, ABERDEEN, WA. More information available from US FCC via Universal Licensing System and Coast Guard Vessel Documentation Center.

Last reported at 2017-Jan-17 02:27 UTC. Time now 2017-Jan-18 18:11 UTC.
Position N 33°19' W 117°49'.

Length 31 m.

Type: Sailing vessel. MMSI: 367092520.

Date/timePositionNaut miles runAvg speedWind from/ knotsBaromVisibWave heightAir tempDewpointWater temp
2017-Jan-17 02:27N 33°19' W 117°49'4 4.0
2017-Jan-17 01:22N 33°20' W 117°44'3 3.1
2017-Jan-17 00:32N 33°22' W 117°42'4 0.2
2017-Jan-15 23:13N 33°27' W 117°42'1 0.6
2017-Jan-15 21:31N 33°28' W 117°42'0 0.0
2017-Jan-15 16:11N 33°28' W 117°42'0 0.0
2017-Jan-15 15:33N 33°28' W 117°42'0 0.0
2017-Jan-15 14:27N 33°28' W 117°42'0 0.0
2017-Jan-15 13:17N 33°28' W 117°42'0 0.0
2017-Jan-15 11:26N 33°28' W 117°42'0 0.0
2017-Jan-15 07:16N 33°28' W 117°42'0 0.0
2017-Jan-15 05:33N 33°28' W 117°42'0 0.0
2017-Jan-15 04:33N 33°28' W 117°42'2 0.4
2017-Jan-15 00:32N 33°26' W 117°42'0 0.3
2017-Jan-14 23:32N 33°26' W 117°41'  
2017-Jan-09 11:30N 33°28' W 117°42'0 0.0
2017-Jan-09 10:30N 33°28' W 117°42'1 0.1
2017-Jan-09 00:29N 33°27' W 117°42'2 1.5
2017-Jan-08 23:22N 33°26' W 117°41'2 0.3
2017-Jan-08 16:14N 33°28' W 117°42'0 0.0
2017-Jan-08 15:28N 33°28' W 117°42'0 0.0
2017-Jan-08 12:29N 33°28' W 117°42'0 0.0
2017-Jan-08 11:19N 33°28' W 117°42'0 0.0
2017-Jan-08 10:21N 33°28' W 117°42'0 0.0
2017-Jan-08 09:27N 33°28' W 117°42'0 0.0
2017-Jan-08 08:30N 33°28' W 117°42'0 0.0
2017-Jan-08 07:27N 33°28' W 117°42'0 0.0
2017-Jan-08 06:29N 33°28' W 117°42'0 0.0
2017-Jan-08 04:29N 33°28' W 117°42'0 0.0
2017-Jan-08 03:26N 33°28' W 117°42'0 0.0
2017-Jan-08 02:33N 33°28' W 117°42'0 0.0
2017-Jan-08 01:30N 33°28' W 117°42'0 0.0
2017-Jan-08 00:28N 33°28' W 117°42'2 1.7
2017-Jan-07 23:07N 33°26' W 117°41'1 0.7
2017-Jan-07 22:12N 33°26' W 117°41'1 1.5
2017-Jan-07 21:26N 33°27' W 117°42'1 0.2
2017-Jan-07 16:23N 33°28' W 117°42'0 0.0
2017-Jan-07 15:32N 33°28' W 117°42'0 0.0
2017-Jan-07 14:26N 33°28' W 117°42'0 0.0
2017-Jan-07 08:24N 33°28' W 117°42'0 0.0
2017-Jan-07 04:12N 33°28' W 117°42'  
Track history (hours):
 
Tides and Currents Weather Stations Pressure Air Temp Water Temp Dewpoint Dewpoint Depression Visibility Wind Speed Wind Dir Waves Ship Positions

Hawaiian Chieftain (United States)

Operated briefly as "Spirt of Larinda". When she sailed from Sausalito, California, callsign was WAA7737.

Ship's website: http://www.historicalseaport.org/HawaiianChieftain.htm

Owner: GRAYS HARBOR HISTORICAL SEAPORT AUTHORITY, ABERDEEN, WA. More information available from US FCC via Universal Licensing System and Coast Guard Vessel Documentation Center.

Last reported at 2017-Jan-17 02:27 UTC. Time now 2017-Jan-18 18:11 UTC.
Position N 33°19' W 117°49'.

Length 31 m.

Type: Sailing vessel. MMSI: 367092520.

Date/timePositionNaut miles runAvg speedWind from/ knotsBaromVisibWave heightAir tempDewpointWater temp
2017-Jan-17 02:27N 33°19' W 117°49'4 4.0
2017-Jan-17 01:22N 33°20' W 117°44'3 3.1
2017-Jan-17 00:32N 33°22' W 117°42'4 0.2
2017-Jan-15 23:13N 33°27' W 117°42'1 0.6
2017-Jan-15 21:31N 33°28' W 117°42'0 0.0
2017-Jan-15 16:11N 33°28' W 117°42'0 0.0
2017-Jan-15 15:33N 33°28' W 117°42'0 0.0
2017-Jan-15 14:27N 33°28' W 117°42'0 0.0
2017-Jan-15 13:17N 33°28' W 117°42'0 0.0
2017-Jan-15 11:26N 33°28' W 117°42'0 0.0
2017-Jan-15 07:16N 33°28' W 117°42'0 0.0
2017-Jan-15 05:33N 33°28' W 117°42'0 0.0
2017-Jan-15 04:33N 33°28' W 117°42'2 0.4
2017-Jan-15 00:32N 33°26' W 117°42'0 0.3
2017-Jan-14 23:32N 33°26' W 117°41'  
2017-Jan-09 11:30N 33°28' W 117°42'0 0.0
2017-Jan-09 10:30N 33°28' W 117°42'1 0.1
2017-Jan-09 00:29N 33°27' W 117°42'2 1.5
2017-Jan-08 23:22N 33°26' W 117°41'2 0.3
2017-Jan-08 16:14N 33°28' W 117°42'0 0.0
2017-Jan-08 15:28N 33°28' W 117°42'0 0.0
2017-Jan-08 12:29N 33°28' W 117°42'0 0.0
2017-Jan-08 11:19N 33°28' W 117°42'0 0.0
2017-Jan-08 10:21N 33°28' W 117°42'0 0.0
2017-Jan-08 09:27N 33°28' W 117°42'0 0.0
2017-Jan-08 08:30N 33°28' W 117°42'0 0.0
2017-Jan-08 07:27N 33°28' W 117°42'0 0.0
2017-Jan-08 06:29N 33°28' W 117°42'0 0.0
2017-Jan-08 04:29N 33°28' W 117°42'0 0.0
2017-Jan-08 03:26N 33°28' W 117°42'0 0.0
2017-Jan-08 02:33N 33°28' W 117°42'0 0.0
2017-Jan-08 01:30N 33°28' W 117°42'0 0.0
2017-Jan-08 00:28N 33°28' W 117°42'2 1.7
2017-Jan-07 23:07N 33°26' W 117°41'1 0.7
2017-Jan-07 22:12N 33°26' W 117°41'1 1.5
2017-Jan-07 21:26N 33°27' W 117°42'1 0.2
2017-Jan-07 16:23N 33°28' W 117°42'0 0.0
2017-Jan-07 15:32N 33°28' W 117°42'0 0.0
2017-Jan-07 14:26N 33°28' W 117°42'0 0.0
2017-Jan-07 08:24N 33°28' W 117°42'0 0.0
2017-Jan-07 04:12N 33°28' W 117°42'  

Dump ship's entire track history